sensor_id;sensor_type;location;lat;lon;timestamp;temperature;humidity
49901;DHT22;35789;48.414;12.768;2023-03-11T00:00:00;3.1;99.9
49901;DHT22;35789;48.414;12.768;2023-03-11T00:05:00;3.0;99.9
49901;DHT22;35789;48.414;12.768;2023-03-11T00:10:00;2.9;99.9
49901;DHT22;35789;48.414;12.768;2023-03-11T00:15:00;2.8;99.9
49901;DHT22;35789;48.414;12.768;2023-03-11T00:20:00;2.8;99.9
49901;DHT22;35789;48.414;12.768;2023-03-11T00:25:00;2.8;99.9
49901;DHT22;35789;48.414;12.768;2023-03-11T00:30:00;2.8;99.9
49901;DHT22;35789;48.414;12.768;2023-03-11T00:35:00;2.8;99.9
49901;DHT22;35789;48.414;12.768;2023-03-11T00:40:00;2.8;99.9
49901;DHT22;35789;48.414;12.768;2023-03-11T00:45:00;2.9;99.9
49901;DHT22;35789;48.414;12.768;2023-03-11T00:50:00;2.9;99.9
49901;DHT22;35789;48.414;12.768;2023-03-11T00:55:00;2.9;99.9
49901;DHT22;35789;48.414;12.768;2023-03-11T01:00:00;2.8;99.9
49901;DHT22;35789;48.414;12.768;2023-03-11T01:05:00;2.8;99.9
49901;DHT22;35789;48.414;12.768;2023-03-11T01:10:00;2.8;99.9
49901;DHT22;35789;48.414;12.768;2023-03-11T01:15:00;2.7;99.9
49901;DHT22;35789;48.414;12.768;2023-03-11T01:20:00;2.7;99.9
49901;DHT22;35789;48.414;12.768;2023-03-11T01:25:00;2.7;99.9
49901;DHT22;35789;48.414;12.768;2023-03-11T01:30:00;2.7;99.9
49901;DHT22;35789;48.414;12.768;2023-03-11T01:35:00;2.7;98.7
49901;DHT22;35789;48.414;12.768;2023-03-11T01:40:00;2.7;99.9
49901;DHT22;35789;48.414;12.768;2023-03-11T01:45:00;2.6;98.9
49901;DHT22;35789;48.414;12.768;2023-03-11T01:50:00;2.6;99.5
49901;DHT22;35789;48.414;12.768;2023-03-11T01:55:00;2.6;99.3
49901;DHT22;35789;48.414;12.768;2023-03-11T02:00:00;2.6;99.9
49901;DHT22;35789;48.414;12.768;2023-03-11T02:05:00;2.6;99.0
49901;DHT22;35789;48.414;12.768;2023-03-11T02:10:00;2.5;98.7
49901;DHT22;35789;48.414;12.768;2023-03-11T02:15:00;2.5;99.0
49901;DHT22;35789;48.414;12.768;2023-03-11T02:20:05;2.4;99.0
49901;DHT22;35789;48.414;12.768;2023-03-11T02:25:03;2.4;98.9
49901;DHT22;35789;48.414;12.768;2023-03-11T02:30:00;2.4;98.9
49901;DHT22;35789;48.414;12.768;2023-03-11T02:35:00;2.4;98.5
49901;DHT22;35789;48.414;12.768;2023-03-11T02:45:02;2.4;98.7
49901;DHT22;35789;48.414;12.768;2023-03-11T02:50:00;2.4;98.9
49901;DHT22;35789;48.414;12.768;2023-03-11T02:55:00;2.3;99.1
49901;DHT22;35789;48.414;12.768;2023-03-11T03:00:00;2.3;99.2
49901;DHT22;35789;48.414;12.768;2023-03-11T03:05:00;2.2;99.5
49901;DHT22;35789;48.414;12.768;2023-03-11T03:10:00;2.2;99.9
49901;DHT22;35789;48.414;12.768;2023-03-11T03:15:00;2.1;99.9
49901;DHT22;35789;48.414;12.768;2023-03-11T03:20:00;2.1;99.9
49901;DHT22;35789;48.414;12.768;2023-03-11T03:25:00;2.0;99.9
49901;DHT22;35789;48.414;12.768;2023-03-11T03:30:00;2.1;99.9
49901;DHT22;35789;48.414;12.768;2023-03-11T03:35:00;2.1;99.9
49901;DHT22;35789;48.414;12.768;2023-03-11T03:40:00;2.0;99.9
49901;DHT22;35789;48.414;12.768;2023-03-11T03:45:00;2.0;99.9
49901;DHT22;35789;48.414;12.768;2023-03-11T03:50:01;2.1;99.9
49901;DHT22;35789;48.414;12.768;2023-03-11T03:55:00;2.1;99.9
49901;DHT22;35789;48.414;12.768;2023-03-11T04:00:00;2.2;99.9
49901;DHT22;35789;48.414;12.768;2023-03-11T04:05:00;2.3;99.9
49901;DHT22;35789;48.414;12.768;2023-03-11T04:10:00;2.3;99.9
49901;DHT22;35789;48.414;12.768;2023-03-11T04:15:00;2.3;99.9
49901;DHT22;35789;48.414;12.768;2023-03-11T04:20:00;2.2;99.9
49901;DHT22;35789;48.414;12.768;2023-03-11T04:25:00;2.2;99.9
49901;DHT22;35789;48.414;12.768;2023-03-11T04:30:00;2.2;99.9
49901;DHT22;35789;48.414;12.768;2023-03-11T04:35:00;2.1;99.9
49901;DHT22;35789;48.414;12.768;2023-03-11T04:40:00;2.1;99.9
49901;DHT22;35789;48.414;12.768;2023-03-11T04:45:00;2.1;99.9
49901;DHT22;35789;48.414;12.768;2023-03-11T04:50:00;2.1;99.9
49901;DHT22;35789;48.414;12.768;2023-03-11T04:55:00;2.1;99.9
49901;DHT22;35789;48.414;12.768;2023-03-11T05:00:00;2.1;99.9
49901;DHT22;35789;48.414;12.768;2023-03-11T05:05:00;2.0;99.9
49901;DHT22;35789;48.414;12.768;2023-03-11T05:10:00;2.1;99.9
49901;DHT22;35789;48.414;12.768;2023-03-11T05:15:00;2.1;99.9
49901;DHT22;35789;48.414;12.768;2023-03-11T05:20:00;2.1;99.9
49901;DHT22;35789;48.414;12.768;2023-03-11T05:25:00;2.0;99.9
49901;DHT22;35789;48.414;12.768;2023-03-11T05:30:00;1.8;99.9
49901;DHT22;35789;48.414;12.768;2023-03-11T05:35:00;1.7;99.9
49901;DHT22;35789;48.414;12.768;2023-03-11T05:40:00;1.7;99.9
49901;DHT22;35789;48.414;12.768;2023-03-11T05:45:00;1.6;99.9
49901;DHT22;35789;48.414;12.768;2023-03-11T05:50:00;1.6;99.7
49901;DHT22;35789;48.414;12.768;2023-03-11T05:55:00;1.5;99.2
49901;DHT22;35789;48.414;12.768;2023-03-11T06:00:00;1.5;98.2
49901;DHT22;35789;48.414;12.768;2023-03-11T06:05:00;1.5;99.1
49901;DHT22;35789;48.414;12.768;2023-03-11T06:10:00;1.5;99.9
49901;DHT22;35789;48.414;12.768;2023-03-11T06:15:00;1.6;99.4
49901;DHT22;35789;48.414;12.768;2023-03-11T06:20:01;1.5;97.5
49901;DHT22;35789;48.414;12.768;2023-03-11T06:25:00;1.6;99.0
49901;DHT22;35789;48.414;12.768;2023-03-11T06:30:00;1.7;98.7
49901;DHT22;35789;48.414;12.768;2023-03-11T06:35:00;1.6;98.0
49901;DHT22;35789;48.414;12.768;2023-03-11T06:40:00;1.6;97.9
49901;DHT22;35789;48.414;12.768;2023-03-11T06:45:00;1.7;98.8
49901;DHT22;35789;48.414;12.768;2023-03-11T06:50:00;1.6;98.2
49901;DHT22;35789;48.414;12.768;2023-03-11T06:55:00;1.6;98.2
49901;DHT22;35789;48.414;12.768;2023-03-11T07:00:00;1.5;98.3
49901;DHT22;35789;48.414;12.768;2023-03-11T07:05:00;1.6;99.7
49901;DHT22;35789;48.414;12.768;2023-03-11T07:10:00;1.6;99.5
49901;DHT22;35789;48.414;12.768;2023-03-11T07:15:00;1.5;99.2
49901;DHT22;35789;48.414;12.768;2023-03-11T07:20:00;1.5;99.9
49901;DHT22;35789;48.414;12.768;2023-03-11T07:25:00;1.4;99.8
49901;DHT22;35789;48.414;12.768;2023-03-11T07:30:00;1.3;99.6
49901;DHT22;35789;48.414;12.768;2023-03-11T07:35:00;1.3;99.9
49901;DHT22;35789;48.414;12.768;2023-03-11T07:40:00;1.2;99.9
49901;DHT22;35789;48.414;12.768;2023-03-11T07:45:00;1.2;99.9
49901;DHT22;35789;48.414;12.768;2023-03-11T07:50:00;1.2;99.9
49901;DHT22;35789;48.414;12.768;2023-03-11T07:55:00;1.3;99.9
49901;DHT22;35789;48.414;12.768;2023-03-11T08:00:00;1.4;99.9
49901;DHT22;35789;48.414;12.768;2023-03-11T08:05:00;1.5;99.9
49901;DHT22;35789;48.414;12.768;2023-03-11T08:10:00;1.6;99.9
49901;DHT22;35789;48.414;12.768;2023-03-11T08:15:00;1.7;99.9
49901;DHT22;35789;48.414;12.768;2023-03-11T08:20:00;1.7;99.9
49901;DHT22;35789;48.414;12.768;2023-03-11T08:25:00;1.8;99.9
49901;DHT22;35789;48.414;12.768;2023-03-11T08:30:00;1.9;99.9
49901;DHT22;35789;48.414;12.768;2023-03-11T08:35:00;2.1;99.9
49901;DHT22;35789;48.414;12.768;2023-03-11T08:40:00;2.0;99.9
49901;DHT22;35789;48.414;12.768;2023-03-11T08:45:00;2.1;99.6
49901;DHT22;35789;48.414;12.768;2023-03-11T08:50:00;2.2;99.9
49901;DHT22;35789;48.414;12.768;2023-03-11T08:55:00;2.3;99.7
49901;DHT22;35789;48.414;12.768;2023-03-11T09:00:00;2.4;99.3
49901;DHT22;35789;48.414;12.768;2023-03-11T09:05:00;2.4;99.3
49901;DHT22;35789;48.414;12.768;2023-03-11T09:10:00;2.6;99.9
49901;DHT22;35789;48.414;12.768;2023-03-11T09:15:00;2.7;98.6
49901;DHT22;35789;48.414;12.768;2023-03-11T09:20:00;2.8;99.5
49901;DHT22;35789;48.414;12.768;2023-03-11T09:25:00;2.6;99.0
49901;DHT22;35789;48.414;12.768;2023-03-11T09:30:00;2.6;98.1
49901;DHT22;35789;48.414;12.768;2023-03-11T09:35:00;2.5;98.5
49901;DHT22;35789;48.414;12.768;2023-03-11T09:40:00;2.7;99.1
49901;DHT22;35789;48.414;12.768;2023-03-11T09:45:01;3.0;99.2
49901;DHT22;35789;48.414;12.768;2023-03-11T09:50:05;3.5;98.7
49901;DHT22;35789;48.414;12.768;2023-03-11T09:55:00;3.5;97.6
49901;DHT22;35789;48.414;12.768;2023-03-11T10:00:00;3.4;97.4
49901;DHT22;35789;48.414;12.768;2023-03-11T10:05:01;3.2;97.5
49901;DHT22;35789;48.414;12.768;2023-03-11T10:10:00;2.8;98.3
49901;DHT22;35789;48.414;12.768;2023-03-11T10:15:04;2.7;97.8
49901;DHT22;35789;48.414;12.768;2023-03-11T10:20:01;3.0;98.2
49901;DHT22;35789;48.414;12.768;2023-03-11T10:25:02;3.2;99.2
49901;DHT22;35789;48.414;12.768;2023-03-11T10:30:02;3.0;97.6
49901;DHT22;35789;48.414;12.768;2023-03-11T10:35:03;2.8;97.3
49901;DHT22;35789;48.414;12.768;2023-03-11T10:40:01;2.9;97.6
49901;DHT22;35789;48.414;12.768;2023-03-11T10:45:00;3.6;97.1
49901;DHT22;35789;48.414;12.768;2023-03-11T10:50:00;3.9;97.3
49901;DHT22;35789;48.414;12.768;2023-03-11T10:55:01;3.7;95.8
49901;DHT22;35789;48.414;12.768;2023-03-11T11:00:00;3.8;97.7
49901;DHT22;35789;48.414;12.768;2023-03-11T11:05:05;3.7;96.9
49901;DHT22;35789;48.414;12.768;2023-03-11T11:15:00;3.6;96.2
49901;DHT22;35789;48.414;12.768;2023-03-11T11:20:01;3.9;96.9
49901;DHT22;35789;48.414;12.768;2023-03-11T11:25:00;4.2;96.2
49901;DHT22;35789;48.414;12.768;2023-03-11T11:30:02;4.0;96.1
49901;DHT22;35789;48.414;12.768;2023-03-11T11:35:00;3.8;95.0
49901;DHT22;35789;48.414;12.768;2023-03-11T11:40:02;3.9;96.8
49901;DHT22;35789;48.414;12.768;2023-03-11T11:45:03;3.9;96.9
49901;DHT22;35789;48.414;12.768;2023-03-11T11:50:00;3.8;95.6
49901;DHT22;35789;48.414;12.768;2023-03-11T11:55:01;3.4;96.2
49901;DHT22;35789;48.414;12.768;2023-03-11T12:00:00;3.2;95.3
49901;DHT22;35789;48.414;12.768;2023-03-11T12:05:01;3.4;95.1
49901;DHT22;35789;48.414;12.768;2023-03-11T12:10:03;3.5;95.3
49901;DHT22;35789;48.414;12.768;2023-03-11T12:15:02;3.5;96.1
49901;DHT22;35789;48.414;12.768;2023-03-11T12:20:02;3.5;95.6
49901;DHT22;35789;48.414;12.768;2023-03-11T12:25:04;3.6;95.6
49901;DHT22;35789;48.414;12.768;2023-03-11T12:30:01;4.0;95.9
49901;DHT22;35789;48.414;12.768;2023-03-11T12:35:00;4.0;95.4
49901;DHT22;35789;48.414;12.768;2023-03-11T12:40:10;3.9;95.9
49901;DHT22;35789;48.414;12.768;2023-03-11T12:45:07;3.8;95.4
49901;DHT22;35789;48.414;12.768;2023-03-11T13:00:02;3.6;94.8
49901;DHT22;35789;48.414;12.768;2023-03-11T13:05:03;3.7;96.0
49901;DHT22;35789;48.414;12.768;2023-03-11T13:10:02;3.7;95.3
49901;DHT22;35789;48.414;12.768;2023-03-11T13:20:00;4.1;94.0
49901;DHT22;35789;48.414;12.768;2023-03-11T13:25:02;4.0;94.7
49901;DHT22;35789;48.414;12.768;2023-03-11T13:30:04;4.1;95.8
49901;DHT22;35789;48.414;12.768;2023-03-11T13:35:04;4.1;94.4
49901;DHT22;35789;48.414;12.768;2023-03-11T13:40:04;4.0;94.3
49901;DHT22;35789;48.414;12.768;2023-03-11T13:45:01;4.0;94.2
49901;DHT22;35789;48.414;12.768;2023-03-11T13:50:01;4.0;94.6
49901;DHT22;35789;48.414;12.768;2023-03-11T13:55:01;4.1;95.8
49901;DHT22;35789;48.414;12.768;2023-03-11T14:00:05;4.3;96.6
49901;DHT22;35789;48.414;12.768;2023-03-11T14:05:02;4.1;95.4
49901;DHT22;35789;48.414;12.768;2023-03-11T14:15:01;4.0;96.0
49901;DHT22;35789;48.414;12.768;2023-03-11T14:20:01;3.8;94.8
49901;DHT22;35789;48.414;12.768;2023-03-11T14:25:01;3.9;95.3
49901;DHT22;35789;48.414;12.768;2023-03-11T14:30:00;3.9;95.2
49901;DHT22;35789;48.414;12.768;2023-03-11T14:35:00;4.0;96.6
49901;DHT22;35789;48.414;12.768;2023-03-11T14:40:00;4.0;94.7
49901;DHT22;35789;48.414;12.768;2023-03-11T14:45:01;4.1;93.7
49901;DHT22;35789;48.414;12.768;2023-03-11T14:50:00;4.2;93.8
49901;DHT22;35789;48.414;12.768;2023-03-11T14:55:00;4.3;94.0
49901;DHT22;35789;48.414;12.768;2023-03-11T15:00:00;4.2;92.7
49901;DHT22;35789;48.414;12.768;2023-03-11T15:05:01;4.1;92.7
49901;DHT22;35789;48.414;12.768;2023-03-11T15:10:00;4.0;93.8
49901;DHT22;35789;48.414;12.768;2023-03-11T15:15:00;4.1;93.8
49901;DHT22;35789;48.414;12.768;2023-03-11T15:20:00;4.1;94.2
49901;DHT22;35789;48.414;12.768;2023-03-11T15:25:00;4.0;96.3
49901;DHT22;35789;48.414;12.768;2023-03-11T15:30:01;3.9;94.5
49901;DHT22;35789;48.414;12.768;2023-03-11T15:35:00;3.8;94.7
49901;DHT22;35789;48.414;12.768;2023-03-11T15:40:09;3.8;95.5
49901;DHT22;35789;48.414;12.768;2023-03-11T15:45:01;3.8;95.9
49901;DHT22;35789;48.414;12.768;2023-03-11T15:50:01;3.7;95.3
49901;DHT22;35789;48.414;12.768;2023-03-11T15:55:00;3.7;94.4
49901;DHT22;35789;48.414;12.768;2023-03-11T16:00:00;3.6;95.8
49901;DHT22;35789;48.414;12.768;2023-03-11T16:05:00;3.6;95.8
49901;DHT22;35789;48.414;12.768;2023-03-11T16:10:00;3.6;95.0
49901;DHT22;35789;48.414;12.768;2023-03-11T16:15:00;3.6;95.4
49901;DHT22;35789;48.414;12.768;2023-03-11T16:20:00;3.6;97.1
49901;DHT22;35789;48.414;12.768;2023-03-11T16:25:00;3.7;96.3
49901;DHT22;35789;48.414;12.768;2023-03-11T16:30:00;3.7;97.3
49901;DHT22;35789;48.414;12.768;2023-03-11T16:35:00;3.6;94.9
49901;DHT22;35789;48.414;12.768;2023-03-11T16:40:00;3.5;95.1
49901;DHT22;35789;48.414;12.768;2023-03-11T16:45:00;3.4;97.1
49901;DHT22;35789;48.414;12.768;2023-03-11T16:50:00;3.3;98.3
49901;DHT22;35789;48.414;12.768;2023-03-11T16:55:00;3.1;97.3
49901;DHT22;35789;48.414;12.768;2023-03-11T17:00:00;3.1;98.5
49901;DHT22;35789;48.414;12.768;2023-03-11T17:05:00;3.0;98.2
49901;DHT22;35789;48.414;12.768;2023-03-11T17:10:00;3.0;98.2
49901;DHT22;35789;48.414;12.768;2023-03-11T17:15:00;3.0;98.6
49901;DHT22;35789;48.414;12.768;2023-03-11T17:20:00;2.9;98.5
49901;DHT22;35789;48.414;12.768;2023-03-11T17:25:00;3.0;99.9
49901;DHT22;35789;48.414;12.768;2023-03-11T17:30:00;2.9;99.5
49901;DHT22;35789;48.414;12.768;2023-03-11T17:35:00;2.8;98.0
49901;DHT22;35789;48.414;12.768;2023-03-11T17:40:00;2.8;98.5
49901;DHT22;35789;48.414;12.768;2023-03-11T17:45:00;2.7;98.3
49901;DHT22;35789;48.414;12.768;2023-03-11T17:50:00;2.7;98.6
49901;DHT22;35789;48.414;12.768;2023-03-11T17:55:00;2.7;98.7
49901;DHT22;35789;48.414;12.768;2023-03-11T18:00:00;2.6;98.8
49901;DHT22;35789;48.414;12.768;2023-03-11T18:05:00;2.5;98.8
49901;DHT22;35789;48.414;12.768;2023-03-11T18:10:00;2.5;99.2
49901;DHT22;35789;48.414;12.768;2023-03-11T18:15:00;2.4;99.3
49901;DHT22;35789;48.414;12.768;2023-03-11T18:20:00;2.4;98.7
49901;DHT22;35789;48.414;12.768;2023-03-11T18:25:00;2.4;98.9
49901;DHT22;35789;48.414;12.768;2023-03-11T18:30:00;2.3;98.6
49901;DHT22;35789;48.414;12.768;2023-03-11T18:35:00;2.3;98.6
49901;DHT22;35789;48.414;12.768;2023-03-11T18:40:00;2.3;99.1
49901;DHT22;35789;48.414;12.768;2023-03-11T18:45:00;2.2;99.5
49901;DHT22;35789;48.414;12.768;2023-03-11T18:50:00;2.2;99.0
49901;DHT22;35789;48.414;12.768;2023-03-11T18:55:00;2.2;99.0
49901;DHT22;35789;48.414;12.768;2023-03-11T19:00:00;2.1;98.6
49901;DHT22;35789;48.414;12.768;2023-03-11T19:05:00;2.1;99.0
49901;DHT22;35789;48.414;12.768;2023-03-11T19:10:00;2.0;98.9
49901;DHT22;35789;48.414;12.768;2023-03-11T19:15:00;1.9;98.9
49901;DHT22;35789;48.414;12.768;2023-03-11T19:20:00;1.9;99.5
49901;DHT22;35789;48.414;12.768;2023-03-11T19:25:00;1.8;98.9
49901;DHT22;35789;48.414;12.768;2023-03-11T19:30:00;1.7;99.9
49901;DHT22;35789;48.414;12.768;2023-03-11T19:35:00;1.5;99.8
49901;DHT22;35789;48.414;12.768;2023-03-11T19:40:00;1.4;99.9
49901;DHT22;35789;48.414;12.768;2023-03-11T19:45:00;1.3;99.9
49901;DHT22;35789;48.414;12.768;2023-03-11T19:50:00;1.3;99.9
49901;DHT22;35789;48.414;12.768;2023-03-11T19:55:00;1.2;99.9
49901;DHT22;35789;48.414;12.768;2023-03-11T20:00:01;1.2;99.9
49901;DHT22;35789;48.414;12.768;2023-03-11T20:05:00;1.2;99.9
49901;DHT22;35789;48.414;12.768;2023-03-11T20:10:00;1.0;99.9
49901;DHT22;35789;48.414;12.768;2023-03-11T20:15:00;1.0;99.9
49901;DHT22;35789;48.414;12.768;2023-03-11T20:20:00;1.1;99.9
49901;DHT22;35789;48.414;12.768;2023-03-11T20:25:00;1.0;99.9
49901;DHT22;35789;48.414;12.768;2023-03-11T20:30:00;1.0;99.9
49901;DHT22;35789;48.414;12.768;2023-03-11T20:35:00;1.0;99.9
49901;DHT22;35789;48.414;12.768;2023-03-11T20:40:00;0.7;99.9
49901;DHT22;35789;48.414;12.768;2023-03-11T20:45:00;0.7;99.9
49901;DHT22;35789;48.414;12.768;2023-03-11T20:50:00;0.3;99.9
49901;DHT22;35789;48.414;12.768;2023-03-11T20:55:00;0.3;99.9
49901;DHT22;35789;48.414;12.768;2023-03-11T21:00:00;0.4;99.9
49901;DHT22;35789;48.414;12.768;2023-03-11T21:05:00;0.4;99.9
49901;DHT22;35789;48.414;12.768;2023-03-11T21:10:00;0.4;99.9
49901;DHT22;35789;48.414;12.768;2023-03-11T21:15:00;0.4;99.9
49901;DHT22;35789;48.414;12.768;2023-03-11T21:20:00;0.2;99.9
49901;DHT22;35789;48.414;12.768;2023-03-11T21:25:00;0.3;99.9
49901;DHT22;35789;48.414;12.768;2023-03-11T21:30:00;0.2;99.9
49901;DHT22;35789;48.414;12.768;2023-03-11T21:35:00;0.2;99.9
49901;DHT22;35789;48.414;12.768;2023-03-11T21:40:00;0.1;99.9
49901;DHT22;35789;48.414;12.768;2023-03-11T21:45:00;0.1;99.9
49901;DHT22;35789;48.414;12.768;2023-03-11T21:50:00;0.0;99.9
49901;DHT22;35789;48.414;12.768;2023-03-11T21:55:00;-0.2;99.9
49901;DHT22;35789;48.414;12.768;2023-03-11T22:00:00;-0.3;99.9
49901;DHT22;35789;48.414;12.768;2023-03-11T22:05:00;-0.2;99.9
49901;DHT22;35789;48.414;12.768;2023-03-11T22:10:00;0.0;99.9
49901;DHT22;35789;48.414;12.768;2023-03-11T22:15:00;0.0;99.9
49901;DHT22;35789;48.414;12.768;2023-03-11T22:20:00;0.0;99.9
49901;DHT22;35789;48.414;12.768;2023-03-11T22:25:00;0.0;99.9
49901;DHT22;35789;48.414;12.768;2023-03-11T22:30:00;0.0;99.9
49901;DHT22;35789;48.414;12.768;2023-03-11T22:35:00;0.0;99.9
49901;DHT22;35789;48.414;12.768;2023-03-11T22:40:00;0.0;99.9
49901;DHT22;35789;48.414;12.768;2023-03-11T22:45:00;0.0;99.9
49901;DHT22;35789;48.414;12.768;2023-03-11T22:50:00;0.0;99.9
49901;DHT22;35789;48.414;12.768;2023-03-11T22:55:00;0.0;99.9
49901;DHT22;35789;48.414;12.768;2023-03-11T23:00:00;0.0;99.9
49901;DHT22;35789;48.414;12.768;2023-03-11T23:05:00;0.0;99.9
49901;DHT22;35789;48.414;12.768;2023-03-11T23:10:00;0.0;99.9
49901;DHT22;35789;48.414;12.768;2023-03-11T23:15:00;0.0;99.9
49901;DHT22;35789;48.414;12.768;2023-03-11T23:20:00;0.0;99.9
49901;DHT22;35789;48.414;12.768;2023-03-11T23:25:00;0.0;99.9
49901;DHT22;35789;48.414;12.768;2023-03-11T23:30:00;0.0;99.9
49901;DHT22;35789;48.414;12.768;2023-03-11T23:35:00;-0.3;99.9
49901;DHT22;35789;48.414;12.768;2023-03-11T23:40:00;-0.3;99.9
49901;DHT22;35789;48.414;12.768;2023-03-11T23:45:00;-0.3;99.9
49901;DHT22;35789;48.414;12.768;2023-03-11T23:50:00;-0.3;99.9
49901;DHT22;35789;48.414;12.768;2023-03-11T23:55:00;-0.3;99.9
